Terminal Aerodrome Forecast
Issued by NWS Grand Forks, ND

Home | Current Version | Previous Version | Graphics & Text | Print | Product List | Glossary On
Versions: 1 2 3 4 5 6 7 8 9 10 11 12 13 14 15 16 17 18 19 20
000
FTUS43 KFGF 260700 AAA
TAFGFK
TAF AMD
KGFK 260715Z 2607/2706 36015KT P6SM -SN OVC050
      TEMPO 2607/2610 4SM -SN BR OVC025
     FM261000 35012KT P6SM SCT025
     FM261500 34011KT P6SM FEW050=

USA.gov is the U.S. government's official web portal to all federal, state and local government web resources and services.